createdAt,value
2016-08-21T04:00:32.826Z,1014.33
2016-08-21T04:00:58.395Z,1014.35
2016-08-21T04:01:23.967Z,1014.35
2016-08-21T04:01:49.548Z,1014.36
2016-08-21T04:02:15.141Z,1014.36
2016-08-21T04:02:40.690Z,1014.39
2016-08-21T04:03:06.282Z,1014.34
2016-08-21T04:03:31.953Z,1014.4
2016-08-21T04:03:57.550Z,1014.35
2016-08-21T04:04:23.118Z,1014.34
2016-08-21T04:04:48.756Z,1014.38
2016-08-21T04:05:14.312Z,1014.37
2016-08-21T04:05:39.883Z,1014.36
2016-08-21T04:06:05.438Z,1014.38
2016-08-21T04:06:31.012Z,1014.35
2016-08-21T04:06:56.553Z,1014.34
2016-08-21T04:07:22.123Z,1014.35
2016-08-21T04:07:47.696Z,1014.34
2016-08-21T04:08:13.259Z,1014.35
2016-08-21T04:08:38.949Z,1014.33
2016-08-21T04:09:04.510Z,1014.31
2016-08-21T04:09:30.084Z,1014.32
2016-08-21T04:09:55.652Z,1014.3
2016-08-21T04:10:21.232Z,1014.31
2016-08-21T04:10:46.853Z,1014.32
2016-08-21T04:11:12.552Z,1014.31
2016-08-21T04:11:38.094Z,1014.32
2016-08-21T04:12:03.685Z,1014.3
2016-08-21T04:12:29.253Z,1014.34
2016-08-21T04:12:54.874Z,1014.32
2016-08-21T04:13:20.443Z,1014.34
2016-08-21T04:13:46.032Z,1014.24
2016-08-21T04:14:11.582Z,1014.3
2016-08-21T04:14:37.154Z,1014.3
2016-08-21T04:15:02.708Z,1014.31
2016-08-21T04:15:28.287Z,1014.3
2016-08-21T04:15:53.850Z,1014.26
2016-08-21T04:16:19.405Z,1014.31
2016-08-21T04:16:44.955Z,1014.3
2016-08-21T04:17:10.520Z,1014.29
2016-08-21T04:17:36.095Z,1014.3
2016-08-21T04:18:01.694Z,1014.33
2016-08-21T04:18:27.265Z,1014.3
2016-08-21T04:18:52.819Z,1014.28
2016-08-21T04:19:18.386Z,1014.3
2016-08-21T04:19:43.948Z,1014.32
2016-08-21T04:20:09.501Z,1014.32
2016-08-21T04:20:35.060Z,1014.33
2016-08-21T04:21:00.619Z,1014.3
2016-08-21T04:21:26.180Z,1014.31
2016-08-21T04:21:51.729Z,1014.35
2016-08-21T04:22:17.413Z,1014.34
2016-08-21T04:22:42.963Z,1014.3
2016-08-21T04:23:08.541Z,1014.36
2016-08-21T04:23:34.220Z,1014.38
2016-08-21T04:23:59.862Z,1014.34
2016-08-21T04:24:25.445Z,1014.33
2016-08-21T04:24:51.035Z,1014.35
2016-08-21T04:25:16.689Z,1014.35
2016-08-21T04:25:42.235Z,1014.33
2016-08-21T04:26:07.808Z,1014.37
2016-08-21T04:26:33.382Z,1014.41
2016-08-21T04:26:58.975Z,1014.4
2016-08-21T04:27:24.542Z,1014.41
2016-08-21T04:27:50.116Z,1014.39
2016-08-21T04:28:15.689Z,1014.39
2016-08-21T04:28:41.241Z,1014.42
2016-08-21T04:29:06.852Z,1014.39
2016-08-21T04:29:32.410Z,1014.41
2016-08-21T04:29:57.985Z,1014.41
2016-08-21T04:30:23.663Z,1014.4
2016-08-21T04:30:49.229Z,1014.4
2016-08-21T04:31:14.782Z,1014.4
2016-08-21T04:31:40.383Z,1014.4
2016-08-21T04:32:05.944Z,1014.36
2016-08-21T04:32:31.486Z,1014.37
2016-08-21T04:32:57.068Z,1014.4
2016-08-21T04:33:22.621Z,1014.39
2016-08-21T04:33:48.172Z,1014.39
2016-08-21T04:34:13.728Z,1014.4
2016-08-21T04:34:39.391Z,1014.39
2016-08-21T04:35:04.957Z,1014.42
2016-08-21T04:35:30.631Z,1014.42
2016-08-21T04:35:56.181Z,1014.39
2016-08-21T04:36:21.750Z,1014.41
2016-08-21T04:36:47.379Z,1014.44
2016-08-21T04:37:12.930Z,1014.37
2016-08-21T04:37:38.497Z,1014.4
2016-08-21T04:38:04.073Z,1014.47
2016-08-21T04:38:29.645Z,1014.44
2016-08-21T04:38:55.204Z,1014.46
2016-08-21T04:39:20.768Z,1014.41
2016-08-21T04:39:46.435Z,1014.45
2016-08-21T04:40:11.995Z,1014.46
2016-08-21T04:40:37.556Z,1014.43
2016-08-21T04:41:03.205Z,1014.46
2016-08-21T04:41:28.765Z,1014.45
2016-08-21T04:41:54.344Z,1014.45
2016-08-21T04:42:19.994Z,1014.44
2016-08-21T04:42:45.595Z,1014.44
2016-08-21T04:43:11.154Z,1014.46
2016-08-21T04:43:36.755Z,1014.44
2016-08-21T04:44:02.315Z,1014.47
2016-08-21T04:44:27.905Z,1014.46
2016-08-21T04:44:53.479Z,1014.45
2016-08-21T04:45:19.029Z,1014.47
2016-08-21T04:45:44.581Z,1014.46
2016-08-21T04:46:42.851Z,1014.46
2016-08-21T04:47:08.428Z,1014.47
2016-08-21T04:47:34.080Z,1014.49
2016-08-21T04:47:59.655Z,1014.48
2016-08-21T04:48:25.198Z,1014.46
2016-08-21T04:48:50.790Z,1014.42
2016-08-21T04:49:16.436Z,1014.43
2016-08-21T04:49:41.993Z,1014.43
2016-08-21T04:50:07.566Z,1014.46
2016-08-21T04:50:33.166Z,1014.45
2016-08-21T04:50:58.734Z,1014.5
2016-08-21T04:51:24.493Z,1014.48
2016-08-21T04:51:50.076Z,1014.49
2016-08-21T04:52:15.646Z,1014.48
2016-08-21T04:52:41.184Z,1014.47
2016-08-21T04:53:06.774Z,1014.46
2016-08-21T04:53:32.323Z,1014.46
2016-08-21T04:53:57.916Z,1014.47
2016-08-21T04:54:23.475Z,1014.49
2016-08-21T04:54:49.054Z,1014.46
2016-08-21T04:55:14.603Z,1014.46
2016-08-21T04:55:40.172Z,1014.48
2016-08-21T04:56:05.740Z,1014.46
2016-08-21T04:56:31.314Z,1014.46
2016-08-21T04:56:56.916Z,1014.44
2016-08-21T04:57:22.481Z,1014.42
2016-08-21T04:57:48.028Z,1014.45
2016-08-21T04:58:13.594Z,1014.5
2016-08-21T04:58:39.258Z,1014.44
2016-08-21T04:59:04.851Z,1014.46
2016-08-21T04:59:30.415Z,1014.48
2016-08-21T05:00:28.556Z,1014.42
2016-08-21T05:00:54.141Z,1014.44
2016-08-21T05:01:19.701Z,1014.45
2016-08-21T05:03:26.835Z,1014.44
2016-08-21T05:03:52.425Z,1014.42
2016-08-21T05:04:18.070Z,1014.43
2016-08-21T05:04:43.631Z,1014.42
2016-08-21T05:05:09.340Z,1014.42
2016-08-21T05:05:34.890Z,1014.4
2016-08-21T05:06:00.520Z,1014.41
2016-08-21T05:06:26.077Z,1014.46
2016-08-21T05:06:51.628Z,1014.42
2016-08-21T05:07:17.205Z,1014.45
2016-08-21T05:07:42.770Z,1014.42
2016-08-21T05:08:08.364Z,1014.45
2016-08-21T05:08:33.930Z,1014.44
2016-08-21T05:08:59.504Z,1014.46
2016-08-21T05:09:25.146Z,1014.43
2016-08-21T05:09:50.701Z,1014.44
2016-08-21T05:10:16.271Z,1014.41
2016-08-21T05:10:41.870Z,1014.44
2016-08-21T05:11:07.445Z,1014.43
2016-08-21T05:11:33.005Z,1014.42
2016-08-21T05:11:58.589Z,1014.43
2016-08-21T05:12:24.143Z,1014.42
2016-08-21T05:12:49.977Z,1014.43
2016-08-21T05:13:15.538Z,1014.46
2016-08-21T05:13:41.113Z,1014.45
2016-08-21T05:14:06.667Z,1014.45
2016-08-21T05:14:32.244Z,1014.47
2016-08-21T05:14:57.795Z,1014.48
2016-08-21T05:15:23.456Z,1014.43
2016-08-21T05:15:49.032Z,1014.44
2016-08-21T05:16:14.609Z,1014.47
2016-08-21T05:16:40.258Z,1014.48
2016-08-21T05:17:05.811Z,1014.46
2016-08-21T05:17:31.357Z,1014.46
2016-08-21T05:17:56.930Z,1014.45
2016-08-21T05:18:22.509Z,1014.41
2016-08-21T05:18:48.119Z,1014.4
2016-08-21T05:19:13.689Z,1014.42
2016-08-21T05:19:39.290Z,1014.39
2016-08-21T05:20:04.915Z,1014.46
2016-08-21T05:20:30.469Z,1014.42
2016-08-21T05:20:56.032Z,1014.4
2016-08-21T05:21:21.579Z,1014.44
2016-08-21T05:21:47.131Z,1014.45
2016-08-21T05:22:12.691Z,1014.47
2016-08-21T05:22:38.243Z,1014.45
2016-08-21T05:23:03.810Z,1014.43
2016-08-21T05:23:29.364Z,1014.47
2016-08-21T05:23:54.963Z,1014.43
2016-08-21T05:24:20.522Z,1014.49
2016-08-21T05:24:46.102Z,1014.49
2016-08-21T05:25:11.682Z,1014.47
2016-08-21T05:25:37.253Z,1014.48
2016-08-21T05:26:02.814Z,1014.52
2016-08-21T05:26:28.389Z,1014.5
2016-08-21T05:26:53.960Z,1014.49
2016-08-21T05:27:19.536Z,1014.5
2016-08-21T05:27:45.277Z,1014.52
2016-08-21T05:28:10.832Z,1014.47
2016-08-21T05:28:36.385Z,1014.49
2016-08-21T05:29:02.012Z,1014.47
2016-08-21T05:29:27.595Z,1014.5
2016-08-21T05:29:53.161Z,1014.49
2016-08-21T05:30:18.845Z,1014.49
2016-08-21T05:30:44.403Z,1014.45
2016-08-21T05:31:09.989Z,1014.47
2016-08-21T05:31:35.567Z,1014.47
2016-08-21T05:32:01.142Z,1014.49
2016-08-21T05:32:26.687Z,1014.47
2016-08-21T05:32:52.263Z,1014.46
2016-08-21T05:33:17.828Z,1014.48
2016-08-21T05:33:43.418Z,1014.46
2016-08-21T05:34:09.041Z,1014.45
2016-08-21T05:34:34.611Z,1014.52
2016-08-21T05:35:00.176Z,1014.44
2016-08-21T05:35:25.763Z,1014.48
2016-08-21T05:35:51.328Z,1014.47
2016-08-21T05:36:16.905Z,1014.49
2016-08-21T05:36:42.456Z,1014.48
2016-08-21T05:37:08.025Z,1014.5
2016-08-21T05:37:33.604Z,1014.47
2016-08-21T05:37:59.173Z,1014.47
2016-08-21T05:38:24.787Z,1014.52
2016-08-21T05:38:50.360Z,1014.48
2016-08-21T05:39:15.940Z,1014.47
2016-08-21T05:39:41.497Z,1014.49
2016-08-21T05:40:07.079Z,1014.47
2016-08-21T05:40:32.632Z,1014.49
2016-08-21T05:40:58.214Z,1014.5
2016-08-21T05:41:23.784Z,1014.5
2016-08-21T05:41:49.393Z,1014.49
2016-08-21T05:42:14.956Z,1014.49
2016-08-21T05:42:40.519Z,1014.48
2016-08-21T05:43:06.069Z,1014.48
2016-08-21T05:43:31.614Z,1014.5
2016-08-21T05:43:57.174Z,1014.49
2016-08-21T05:44:22.745Z,1014.51
2016-08-21T05:44:48.403Z,1014.53
2016-08-21T05:45:13.965Z,1014.49
2016-08-21T05:45:39.554Z,1014.54
2016-08-21T05:46:05.125Z,1014.49
2016-08-21T05:46:30.685Z,1014.49
2016-08-21T05:46:56.350Z,1014.51
2016-08-21T05:47:21.903Z,1014.49
2016-08-21T05:47:47.471Z,1014.46
2016-08-21T05:48:13.172Z,1014.5
2016-08-21T05:48:38.754Z,1014.44
2016-08-21T05:49:04.327Z,1014.48
2016-08-21T05:49:29.897Z,1014.43
2016-08-21T05:49:55.451Z,1014.47
2016-08-21T05:50:21.003Z,1014.48
2016-08-21T05:50:46.743Z,1014.44
2016-08-21T05:51:12.311Z,1014.51
2016-08-21T05:51:37.891Z,1014.44
2016-08-21T05:52:03.465Z,1014.46
2016-08-21T05:52:29.031Z,1014.5
2016-08-21T05:52:54.585Z,1014.44
2016-08-21T05:53:20.240Z,1014.46
2016-08-21T05:53:45.796Z,1014.46
2016-08-21T05:54:11.362Z,1014.46
2016-08-21T05:54:36.941Z,1014.49
2016-08-21T05:55:02.524Z,1014.48
2016-08-21T05:55:28.095Z,1014.43
2016-08-21T05:55:53.723Z,1014.47
2016-08-21T05:56:19.299Z,1014.47
2016-08-21T05:56:44.874Z,1014.47
2016-08-21T05:57:10.544Z,1014.47
2016-08-21T05:57:36.176Z,1014.44
2016-08-21T05:58:01.755Z,1014.47
2016-08-21T05:58:27.313Z,1014.43
2016-08-21T05:58:52.882Z,1014.48
2016-08-21T05:59:18.453Z,1014.45
2016-08-21T05:59:44.008Z,1014.5
2016-08-21T06:00:09.606Z,1014.5
2016-08-21T06:01:07.855Z,1014.47
2016-08-21T06:01:33.458Z,1014.52
2016-08-21T06:01:59.038Z,1014.53
2016-08-21T06:02:24.611Z,1014.54
2016-08-21T06:02:50.177Z,1014.51
2016-08-21T06:03:15.749Z,1014.5
2016-08-21T06:03:41.313Z,1014.48
2016-08-21T06:04:06.909Z,1014.46
2016-08-21T06:04:32.466Z,1014.52
2016-08-21T06:04:58.024Z,1014.49
2016-08-21T06:05:23.565Z,1014.49
2016-08-21T06:05:49.131Z,1014.51
2016-08-21T06:06:14.692Z,1014.47
2016-08-21T06:06:40.274Z,1014.47
2016-08-21T06:07:05.898Z,1014.41
2016-08-21T06:07:31.463Z,1014.41
2016-08-21T06:07:57.017Z,1014.39
2016-08-21T06:08:22.574Z,1014.43
2016-08-21T06:08:48.299Z,1014.44
2016-08-21T06:09:13.930Z,1014.39
2016-08-21T06:09:39.498Z,1014.44
2016-08-21T06:10:05.063Z,1014.43
2016-08-21T06:10:30.628Z,1014.41
2016-08-21T06:10:56.300Z,1014.43
2016-08-21T06:11:21.882Z,1014.45
2016-08-21T06:11:47.498Z,1014.45
2016-08-21T06:12:13.074Z,1014.48
2016-08-21T06:12:38.621Z,1014.46
2016-08-21T06:13:04.199Z,1014.48
2016-08-21T06:13:29.775Z,1014.43
2016-08-21T06:13:55.327Z,1014.45
2016-08-21T06:14:20.897Z,1014.42
2016-08-21T06:14:46.470Z,1014.48
2016-08-21T06:15:12.058Z,1014.48
2016-08-21T06:15:37.628Z,1014.47
2016-08-21T06:16:03.195Z,1014.43
2016-08-21T06:16:28.776Z,1014.43
2016-08-21T06:16:54.409Z,1014.46
2016-08-21T06:17:20.061Z,1014.46
2016-08-21T06:17:45.621Z,1014.5
2016-08-21T06:18:11.286Z,1014.46
2016-08-21T06:18:36.919Z,1014.46
2016-08-21T06:19:02.463Z,1014.49
2016-08-21T06:19:28.024Z,1014.46
2016-08-21T06:19:53.593Z,1014.44
2016-08-21T06:20:19.162Z,1014.46
2016-08-21T06:20:44.746Z,1014.43
2016-08-21T06:21:10.361Z,1014.45
2016-08-21T06:21:35.924Z,1014.48
2016-08-21T06:22:01.506Z,1014.47
2016-08-21T06:22:27.068Z,1014.52
2016-08-21T06:22:52.639Z,1014.47
2016-08-21T06:23:18.201Z,1014.53
2016-08-21T06:23:43.880Z,1014.5
2016-08-21T06:24:09.464Z,1014.49
2016-08-21T06:24:35.136Z,1014.49
2016-08-21T06:25:00.715Z,1014.5
2016-08-21T06:25:26.283Z,1014.5
2016-08-21T06:25:51.862Z,1014.49
2016-08-21T06:26:17.443Z,1014.47
2016-08-21T06:26:43.048Z,1014.49
2016-08-21T06:27:08.773Z,1014.47
2016-08-21T06:27:34.375Z,1014.48
2016-08-21T06:27:59.964Z,1014.5
2016-08-21T06:28:25.529Z,1014.51
2016-08-21T06:28:51.115Z,1014.48
2016-08-21T06:29:16.688Z,1014.51
2016-08-21T06:29:42.290Z,1014.51
2016-08-21T06:30:07.852Z,1014.48
2016-08-21T06:30:33.478Z,1014.51
2016-08-21T06:30:59.224Z,1014.51
2016-08-21T06:31:24.815Z,1014.53
2016-08-21T06:31:50.433Z,1014.55
2016-08-21T06:32:15.997Z,1014.46
2016-08-21T06:32:41.570Z,1014.5
2016-08-21T06:33:07.140Z,1014.48
2016-08-21T06:33:32.701Z,1014.48
2016-08-21T06:33:58.311Z,1014.49
2016-08-21T06:34:23.863Z,1014.52
2016-08-21T06:34:49.405Z,1014.48
2016-08-21T06:35:14.973Z,1014.52
2016-08-21T06:35:40.543Z,1014.51
2016-08-21T06:36:06.150Z,1014.55
2016-08-21T06:36:31.717Z,1014.5
2016-08-21T06:36:57.288Z,1014.54
2016-08-21T06:37:22.857Z,1014.52
2016-08-21T06:37:48.659Z,1014.54
2016-08-21T06:38:14.233Z,1014.51
2016-08-21T06:38:39.805Z,1014.55
2016-08-21T06:39:05.380Z,1014.52
2016-08-21T06:39:31.001Z,1014.57
2016-08-21T06:39:56.592Z,1014.56
2016-08-21T06:40:22.206Z,1014.6
2016-08-21T06:40:47.744Z,1014.57
2016-08-21T06:41:13.314Z,1014.55
2016-08-21T06:41:38.882Z,1014.57
2016-08-21T06:42:04.442Z,1014.6
2016-08-21T06:42:30.008Z,1014.56
2016-08-21T06:42:55.560Z,1014.55
2016-08-21T06:43:21.135Z,1014.55
2016-08-21T06:43:46.684Z,1014.57
2016-08-21T06:44:12.296Z,1014.55
2016-08-21T06:44:37.866Z,1014.53
2016-08-21T06:45:03.521Z,1014.5
2016-08-21T06:45:29.104Z,1014.52
2016-08-21T06:45:54.704Z,1014.53
2016-08-21T06:46:20.299Z,1014.53
2016-08-21T06:46:45.901Z,1014.53
2016-08-21T06:47:11.454Z,1014.53
2016-08-21T06:47:37.019Z,1014.53
2016-08-21T06:48:02.590Z,1014.51
2016-08-21T06:48:28.158Z,1014.54
2016-08-21T06:48:53.888Z,1014.53
2016-08-21T06:49:19.495Z,1014.52
2016-08-21T06:49:45.087Z,1014.49
2016-08-21T06:50:10.651Z,1014.52
2016-08-21T06:50:36.211Z,1014.5
2016-08-21T06:51:01.807Z,1014.55
2016-08-21T06:51:27.384Z,1014.5
2016-08-21T06:51:52.963Z,1014.51
2016-08-21T06:52:18.734Z,1014.47
2016-08-21T06:52:44.278Z,1014.52
2016-08-21T06:53:09.876Z,1014.51
2016-08-21T06:53:35.537Z,1014.5
2016-08-21T06:54:01.117Z,1014.53
2016-08-21T06:54:26.672Z,1014.5
2016-08-21T06:54:52.254Z,1014.48
2016-08-21T06:55:17.916Z,1014.51
2016-08-21T06:55:43.494Z,1014.47
2016-08-21T06:56:09.361Z,1014.43
2016-08-21T06:56:34.933Z,1014.45
2016-08-21T06:57:38.246Z,1014.5
2016-08-21T06:58:03.839Z,1014.51
2016-08-21T06:58:29.604Z,1014.49
2016-08-21T06:58:55.175Z,1014.45
2016-08-21T06:59:20.745Z,1014.46
2016-08-21T06:59:46.311Z,1014.5
2016-08-21T07:00:11.929Z,1014.41
2016-08-21T07:00:37.483Z,1014.47
2016-08-21T07:01:03.055Z,1014.44
2016-08-21T07:01:28.610Z,1014.41
2016-08-21T07:01:54.188Z,1014.41
2016-08-21T07:02:19.756Z,1014.44
2016-08-21T07:02:45.419Z,1014.43
2016-08-21T07:03:10.992Z,1014.43
2016-08-21T07:03:36.585Z,1014.41
2016-08-21T07:04:02.163Z,1014.41
2016-08-21T07:04:27.755Z,1014.39
2016-08-21T07:04:53.315Z,1014.41
2016-08-21T07:05:18.899Z,1014.41
2016-08-21T07:05:44.579Z,1014.41
2016-08-21T07:06:10.195Z,1014.43
2016-08-21T07:06:35.804Z,1014.4
2016-08-21T07:07:01.341Z,1014.37
2016-08-21T07:07:26.880Z,1014.4
2016-08-21T07:07:52.468Z,1014.36
2016-08-21T07:08:18.176Z,1014.38
2016-08-21T07:08:43.743Z,1014.38
2016-08-21T07:09:09.313Z,1014.42
2016-08-21T07:09:34.959Z,1014.38
2016-08-21T07:10:00.596Z,1014.33
2016-08-21T07:10:26.163Z,1014.36
2016-08-21T07:10:51.713Z,1014.41
2016-08-21T07:11:17.258Z,1014.37
2016-08-21T07:11:42.810Z,1014.34
2016-08-21T07:12:08.369Z,1014.38
2016-08-21T07:12:33.909Z,1014.35
2016-08-21T07:13:37.186Z,1014.35
2016-08-21T07:14:02.775Z,1014.42
2016-08-21T07:14:28.342Z,1014.35
2016-08-21T07:14:53.999Z,1014.34
2016-08-21T07:15:19.533Z,1014.37
2016-08-21T07:15:45.122Z,1014.4
2016-08-21T07:16:10.698Z,1014.37
2016-08-21T07:16:36.276Z,1014.39
2016-08-21T07:17:01.938Z,1014.39
2016-08-21T07:17:27.697Z,1014.36
2016-08-21T07:17:53.273Z,1014.37
2016-08-21T07:18:18.830Z,1014.33
2016-08-21T07:18:44.499Z,1014.39
2016-08-21T07:19:10.081Z,1014.33
2016-08-21T07:19:35.754Z,1014.33
2016-08-21T07:20:01.322Z,1014.34
2016-08-21T07:20:26.899Z,1014.39
2016-08-21T07:20:52.440Z,1014.37
2016-08-21T07:21:18.018Z,1014.4
2016-08-21T07:22:31.545Z,1014.42
2016-08-21T07:22:57.198Z,1014.4
2016-08-21T07:23:22.671Z,1014.4
2016-08-21T07:23:48.294Z,1014.36
2016-08-21T07:24:14.021Z,1014.39
2016-08-21T07:24:39.602Z,1014.4
2016-08-21T07:25:05.157Z,1014.39
2016-08-21T07:25:30.759Z,1014.39
2016-08-21T07:25:56.446Z,1014.43
2016-08-21T07:26:22.028Z,1014.36
2016-08-21T07:26:47.584Z,1014.35
2016-08-21T07:27:13.131Z,1014.36
2016-08-21T07:27:38.699Z,1014.33
2016-08-21T07:28:04.286Z,1014.34
2016-08-21T07:28:29.857Z,1014.32
2016-08-21T07:28:55.473Z,1014.38
2016-08-21T07:29:21.086Z,1014.34
2016-08-21T07:29:46.756Z,1014.37
2016-08-21T07:30:12.408Z,1014.36
2016-08-21T07:30:37.974Z,1014.39
2016-08-21T07:31:03.603Z,1014.32
2016-08-21T07:31:29.205Z,1014.35
2016-08-21T07:32:37.484Z,1014.34
2016-08-21T07:33:03.055Z,1014.36
2016-08-21T07:33:28.617Z,1014.32
2016-08-21T07:33:54.222Z,1014.3
2016-08-21T07:34:19.802Z,1014.3
2016-08-21T07:34:45.464Z,1014.32
2016-08-21T07:35:10.998Z,1014.34
2016-08-21T07:35:36.534Z,1014.34
2016-08-21T07:36:02.091Z,1014.32
2016-08-21T07:36:27.643Z,1014.34
2016-08-21T07:36:53.206Z,1014.27
2016-08-21T07:37:18.845Z,1014.31
2016-08-21T07:37:44.435Z,1014.31
2016-08-21T07:38:10.072Z,1014.34
2016-08-21T07:38:35.646Z,1014.32
2016-08-21T07:39:01.309Z,1014.29
2016-08-21T07:39:26.880Z,1014.33
2016-08-21T07:39:52.479Z,1014.37
2016-08-21T07:40:18.064Z,1014.42
2016-08-21T07:40:43.646Z,1014.4
2016-08-21T07:41:09.225Z,1014.38
2016-08-21T07:41:35.001Z,1014.4
2016-08-21T07:42:00.636Z,1014.37
2016-08-21T07:42:26.306Z,1014.39
2016-08-21T07:42:51.969Z,1014.37
2016-08-21T07:43:17.543Z,1014.37
2016-08-21T07:43:43.110Z,1014.32
2016-08-21T07:44:08.669Z,1014.36
2016-08-21T07:44:34.226Z,1014.39
2016-08-21T07:44:59.797Z,1014.41
2016-08-21T07:45:25.371Z,1014.4
2016-08-21T07:45:50.939Z,1014.38
2016-08-21T07:46:16.514Z,1014.41
2016-08-21T07:46:42.114Z,1014.38
2016-08-21T07:47:07.706Z,1014.36
2016-08-21T07:47:33.255Z,1014.35
2016-08-21T07:47:58.813Z,1014.31
2016-08-21T07:48:24.397Z,1014.34
2016-08-21T07:48:49.979Z,1014.34
2016-08-21T07:49:15.577Z,1014.32
2016-08-21T07:49:41.363Z,1014.34
2016-08-21T07:50:06.842Z,1014.34
2016-08-21T07:51:20.264Z,1014.4
2016-08-21T07:51:45.826Z,1014.35
2016-08-21T07:52:11.490Z,1014.41
2016-08-21T07:52:37.114Z,1014.37
2016-08-21T07:53:02.685Z,1014.37
2016-08-21T07:53:28.248Z,1014.35
2016-08-21T07:53:53.805Z,1014.39
2016-08-21T07:54:19.359Z,1014.39
2016-08-21T07:54:44.935Z,1014.4
2016-08-21T07:55:10.510Z,1014.39
2016-08-21T07:55:36.078Z,1014.41
2016-08-21T07:56:01.654Z,1014.41
2016-08-21T07:56:27.222Z,1014.41
2016-08-21T07:56:52.798Z,1014.44
2016-08-21T07:57:18.453Z,1014.4
2016-08-21T07:57:44.032Z,1014.4
2016-08-21T07:58:09.613Z,1014.42
2016-08-21T07:58:35.527Z,1014.41
2016-08-21T07:59:01.068Z,1014.43
2016-08-21T07:59:26.751Z,1014.45
2016-08-21T07:59:52.330Z,1014.4
2016-08-21T08:00:17.888Z,1014.4
2016-08-21T08:00:43.535Z,1014.41
2016-08-21T08:01:09.085Z,1014.41
2016-08-21T08:01:34.663Z,1014.42
2016-08-21T08:02:00.235Z,1014.46
2016-08-21T08:02:25.799Z,1014.44
2016-08-21T08:02:51.357Z,1014.38
2016-08-21T08:03:16.929Z,1014.45
2016-08-21T08:03:42.494Z,1014.43
2016-08-21T08:04:08.270Z,1014.48
2016-08-21T08:04:33.849Z,1014.41
2016-08-21T08:04:59.427Z,1014.42
2016-08-21T08:05:24.984Z,1014.44
2016-08-21T08:06:38.523Z,1014.47
2016-08-21T08:07:04.115Z,1014.41
2016-08-21T08:07:29.736Z,1014.49
2016-08-21T08:07:55.310Z,1014.46
2016-08-21T08:08:20.902Z,1014.53
2016-08-21T08:08:46.485Z,1014.54
2016-08-21T08:09:12.049Z,1014.48
2016-08-21T08:09:37.575Z,1014.52
2016-08-21T08:10:03.131Z,1014.51
2016-08-21T08:10:28.719Z,1014.54
2016-08-21T08:10:54.272Z,1014.59
2016-08-21T08:11:19.932Z,1014.55
2016-08-21T08:11:45.591Z,1014.55
2016-08-21T08:12:11.284Z,1014.59
2016-08-21T08:12:36.778Z,1014.59
2016-08-21T08:13:02.349Z,1014.58
2016-08-21T08:13:27.895Z,1014.59
2016-08-21T08:13:53.510Z,1014.6
2016-08-21T08:14:19.095Z,1014.54
2016-08-21T08:14:44.670Z,1014.55
2016-08-21T08:15:10.248Z,1014.53
2016-08-21T08:15:35.917Z,1014.5
2016-08-21T08:16:39.419Z,1014.55
2016-08-21T08:17:04.965Z,1014.52
2016-08-21T08:17:30.735Z,1014.5
2016-08-21T08:17:56.477Z,1014.54
2016-08-21T08:18:22.097Z,1014.54
2016-08-21T08:18:47.668Z,1014.52
2016-08-21T08:19:13.225Z,1014.49
2016-08-21T08:19:39.052Z,1014.53
2016-08-21T08:20:04.614Z,1014.52
2016-08-21T08:20:30.759Z,1014.51
2016-08-21T08:20:56.523Z,1014.49
2016-08-21T08:21:22.100Z,1014.52
2016-08-21T08:21:48.052Z,1014.5
2016-08-21T08:22:13.643Z,1014.5
2016-08-21T08:22:39.810Z,1014.44
2016-08-21T08:23:05.387Z,1014.51
2016-08-21T08:23:31.610Z,1014.52
2016-08-21T08:23:57.223Z,1014.49
2016-08-21T08:24:22.830Z,1014.53
2016-08-21T08:24:48.943Z,1014.5
2016-08-21T08:25:14.557Z,1014.51
2016-08-21T08:25:40.766Z,1014.56
2016-08-21T08:26:06.323Z,1014.51
2016-08-21T08:26:31.910Z,1014.57
2016-08-21T08:26:58.181Z,1014.54
2016-08-21T08:27:23.753Z,1014.57
2016-08-21T08:27:49.892Z,1014.53
2016-08-21T08:28:15.446Z,1014.58
2016-08-21T08:28:41.663Z,1014.57
2016-08-21T08:29:07.290Z,1014.53
2016-08-21T08:29:32.856Z,1014.54
2016-08-21T08:29:59.050Z,1014.59
2016-08-21T08:30:24.606Z,1014.63
2016-08-21T08:30:50.835Z,1014.56
2016-08-21T08:31:16.408Z,1014.52
2016-08-21T08:31:42.007Z,1014.54
2016-08-21T08:32:08.262Z,1014.57
2016-08-21T08:33:11.474Z,1014.52
2016-08-21T08:33:37.041Z,1014.51
2016-08-21T08:34:02.597Z,1014.57
2016-08-21T08:34:28.157Z,1014.52
2016-08-21T08:34:53.758Z,1014.53
2016-08-21T08:35:19.292Z,1014.54
2016-08-21T08:35:44.856Z,1014.54
2016-08-21T08:36:10.419Z,1014.56
2016-08-21T08:36:35.970Z,1014.53
2016-08-21T08:37:01.547Z,1014.51
2016-08-21T08:37:27.237Z,1014.54
2016-08-21T08:37:52.812Z,1014.55
2016-08-21T08:38:18.409Z,1014.54
2016-08-21T08:38:43.972Z,1014.54
2016-08-21T08:39:09.603Z,1014.52
2016-08-21T08:39:35.186Z,1014.58
2016-08-21T08:40:00.752Z,1014.55
2016-08-21T08:40:26.344Z,1014.58
2016-08-21T08:41:34.621Z,1014.57
2016-08-21T08:42:00.296Z,1014.62
2016-08-21T08:42:25.848Z,1014.62
2016-08-21T08:42:51.792Z,1014.56
2016-08-21T08:43:17.360Z,1014.59
2016-08-21T08:43:42.970Z,1014.57
2016-08-21T08:44:08.550Z,1014.55
2016-08-21T08:44:34.117Z,1014.57
2016-08-21T08:44:59.727Z,1014.54
2016-08-21T08:45:25.304Z,1014.58
2016-08-21T08:45:50.844Z,1014.62
2016-08-21T08:46:16.570Z,1014.58
2016-08-21T08:46:42.142Z,1014.62
2016-08-21T08:47:07.717Z,1014.56
2016-08-21T08:47:33.292Z,1014.55
2016-08-21T08:47:58.860Z,1014.63
2016-08-21T08:48:24.448Z,1014.62
2016-08-21T08:48:50.010Z,1014.54
2016-08-21T08:49:15.560Z,1014.54
2016-08-21T08:49:41.132Z,1014.55
2016-08-21T08:50:06.686Z,1014.6
2016-08-21T08:50:32.260Z,1014.61
2016-08-21T08:50:57.845Z,1014.57
2016-08-21T08:51:23.433Z,1014.61
2016-08-21T08:51:48.997Z,1014.6
2016-08-21T08:52:14.581Z,1014.65
2016-08-21T08:52:40.167Z,1014.68
2016-08-21T08:53:05.735Z,1014.64
2016-08-21T08:53:31.296Z,1014.61
2016-08-21T08:53:56.864Z,1014.63
2016-08-21T08:54:22.516Z,1014.59
2016-08-21T08:54:48.078Z,1014.61
2016-08-21T08:55:13.646Z,1014.63
2016-08-21T08:55:39.221Z,1014.66
2016-08-21T08:56:37.289Z,1014.57
2016-08-21T08:57:02.848Z,1014.59
2016-08-21T08:57:28.412Z,1014.65
2016-08-21T08:57:54.137Z,1014.7
2016-08-21T08:58:19.697Z,1014.67
2016-08-21T08:58:45.264Z,1014.72
2016-08-21T08:59:10.834Z,1014.69
2016-08-21T08:59:36.454Z,1014.66
2016-08-21T09:00:02.042Z,1014.72
2016-08-21T09:00:27.593Z,1014.68
2016-08-21T09:00:53.174Z,1014.63
2016-08-21T09:01:18.744Z,1014.62
2016-08-21T09:01:44.322Z,1014.64
2016-08-21T09:02:09.888Z,1014.67
2016-08-21T09:02:35.470Z,1014.68
2016-08-21T09:03:01.141Z,1014.67
2016-08-21T09:03:26.742Z,1014.65
2016-08-21T09:03:52.315Z,1014.69
2016-08-21T09:04:17.964Z,1014.63
2016-08-21T09:04:43.537Z,1014.68
2016-08-21T09:05:09.107Z,1014.67
2016-08-21T09:05:34.670Z,1014.7
2016-08-21T09:06:00.252Z,1014.69
2016-08-21T09:06:25.821Z,1014.68
2016-08-21T09:06:51.396Z,1014.72
2016-08-21T09:07:16.948Z,1014.76
2016-08-21T09:07:42.511Z,1014.72
2016-08-21T09:08:08.059Z,1014.67
2016-08-21T09:08:33.642Z,1014.7
2016-08-21T09:08:59.214Z,1014.72
2016-08-21T09:09:24.901Z,1014.69
2016-08-21T09:09:50.466Z,1014.67
2016-08-21T09:10:16.036Z,1014.69
2016-08-21T09:10:41.713Z,1014.66
2016-08-21T09:11:07.280Z,1014.64
2016-08-21T09:11:32.851Z,1014.69
2016-08-21T09:11:58.411Z,1014.66
2016-08-21T09:12:23.985Z,1014.71
2016-08-21T09:12:49.580Z,1014.69
2016-08-21T09:13:15.166Z,1014.66
2016-08-21T09:13:40.737Z,1014.7
2016-08-21T09:14:06.297Z,1014.73
2016-08-21T09:14:31.865Z,1014.71
2016-08-21T09:14:57.448Z,1014.7
2016-08-21T09:15:23.013Z,1014.7
2016-08-21T09:15:48.577Z,1014.66
2016-08-21T09:16:14.156Z,1014.7
2016-08-21T09:16:39.718Z,1014.74
2016-08-21T09:17:05.290Z,1014.71
2016-08-21T09:17:30.862Z,1014.7
2016-08-21T09:17:56.438Z,1014.71
2016-08-21T09:18:22.095Z,1014.67
2016-08-21T09:21:17.114Z,1014.8
2016-08-21T09:21:50.997Z,1014.82
2016-08-21T09:22:16.553Z,1014.82
2016-08-21T09:22:42.147Z,1014.82
2016-08-21T09:23:07.743Z,1014.79
2016-08-21T09:23:33.309Z,1014.78
2016-08-21T09:23:58.882Z,1014.79